sensor_id;sensor_type;location;lat;lon;timestamp;P1;durP1;ratioP1;P2;durP2;ratioP2
13291;SDS011;6714;53.056;8.690;2024-02-15T00:02:10;8.90;;;7.83;;
13291;SDS011;6714;53.056;8.690;2024-02-15T00:04:54;8.90;;;7.70;;
13291;SDS011;6714;53.056;8.690;2024-02-15T00:07:38;7.90;;;7.00;;
13291;SDS011;6714;53.056;8.690;2024-02-15T00:10:21;7.37;;;6.67;;
13291;SDS011;6714;53.056;8.690;2024-02-15T00:13:07;10.70;;;8.77;;
13291;SDS011;6714;53.056;8.690;2024-02-15T00:15:50;9.60;;;8.47;;
13291;SDS011;6714;53.056;8.690;2024-02-15T00:18:33;8.67;;;7.37;;
13291;SDS011;6714;53.056;8.690;2024-02-15T00:21:15;6.50;;;5.90;;
13291;SDS011;6714;53.056;8.690;2024-02-15T00:23:58;11.27;;;10.03;;
13291;SDS011;6714;53.056;8.690;2024-02-15T00:26:42;15.17;;;12.23;;
13291;SDS011;6714;53.056;8.690;2024-02-15T00:29:25;11.07;;;9.57;;
13291;SDS011;6714;53.056;8.690;2024-02-15T00:32:10;12.73;;;9.80;;
13291;SDS011;6714;53.056;8.690;2024-02-15T00:34:53;14.30;;;11.40;;
13291;SDS011;6714;53.056;8.690;2024-02-15T00:37:36;10.77;;;9.47;;
13291;SDS011;6714;53.056;8.690;2024-02-15T00:40:22;8.63;;;7.80;;
13291;SDS011;6714;53.056;8.690;2024-02-15T00:43:05;17.17;;;11.57;;
13291;SDS011;6714;53.056;8.690;2024-02-15T00:45:48;11.83;;;10.23;;
13291;SDS011;6714;53.056;8.690;2024-02-15T00:48:30;12.97;;;10.73;;
13291;SDS011;6714;53.056;8.690;2024-02-15T00:51:14;15.57;;;12.10;;
13291;SDS011;6714;53.056;8.690;2024-02-15T00:53:56;10.30;;;8.70;;
13291;SDS011;6714;53.056;8.690;2024-02-15T00:56:39;11.80;;;10.23;;
13291;SDS011;6714;53.056;8.690;2024-02-15T00:59:21;11.93;;;9.93;;
13291;SDS011;6714;53.056;8.690;2024-02-15T01:02:05;9.73;;;8.63;;
13291;SDS011;6714;53.056;8.690;2024-02-15T01:04:47;13.27;;;11.33;;
13291;SDS011;6714;53.056;8.690;2024-02-15T01:07:30;13.70;;;12.10;;
13291;SDS011;6714;53.056;8.690;2024-02-15T01:10:13;14.83;;;12.40;;
13291;SDS011;6714;53.056;8.690;2024-02-15T01:12:55;15.13;;;12.67;;
13291;SDS011;6714;53.056;8.690;2024-02-15T01:15:37;14.20;;;11.37;;
13291;SDS011;6714;53.056;8.690;2024-02-15T01:18:22;14.67;;;11.70;;
13291;SDS011;6714;53.056;8.690;2024-02-15T01:21:05;14.90;;;11.53;;
13291;SDS011;6714;53.056;8.690;2024-02-15T01:23:47;14.63;;;11.87;;
13291;SDS011;6714;53.056;8.690;2024-02-15T01:26:30;11.37;;;9.47;;
13291;SDS011;6714;53.056;8.690;2024-02-15T01:29:12;13.53;;;11.33;;
13291;SDS011;6714;53.056;8.690;2024-02-15T01:31:54;15.00;;;12.73;;
13291;SDS011;6714;53.056;8.690;2024-02-15T01:34:38;13.73;;;10.80;;
13291;SDS011;6714;53.056;8.690;2024-02-15T01:37:20;15.20;;;12.57;;
13291;SDS011;6714;53.056;8.690;2024-02-15T01:40:03;10.73;;;9.37;;
13291;SDS011;6714;53.056;8.690;2024-02-15T01:42:46;13.40;;;11.00;;
13291;SDS011;6714;53.056;8.690;2024-02-15T01:45:29;14.17;;;11.50;;
13291;SDS011;6714;53.056;8.690;2024-02-15T01:48:12;12.77;;;10.80;;
13291;SDS011;6714;53.056;8.690;2024-02-15T01:50:56;14.27;;;10.67;;
13291;SDS011;6714;53.056;8.690;2024-02-15T01:53:39;14.70;;;11.13;;
13291;SDS011;6714;53.056;8.690;2024-02-15T01:56:22;9.57;;;8.47;;
13291;SDS011;6714;53.056;8.690;2024-02-15T01:59:05;9.67;;;8.47;;
13291;SDS011;6714;53.056;8.690;2024-02-15T02:01:49;14.57;;;10.63;;
13291;SDS011;6714;53.056;8.690;2024-02-15T02:04:31;14.00;;;11.40;;
13291;SDS011;6714;53.056;8.690;2024-02-15T02:07:15;14.63;;;11.00;;
13291;SDS011;6714;53.056;8.690;2024-02-15T02:09:58;13.27;;;10.63;;
13291;SDS011;6714;53.056;8.690;2024-02-15T02:12:42;10.50;;;9.40;;
13291;SDS011;6714;53.056;8.690;2024-02-15T02:15:25;14.67;;;12.23;;
13291;SDS011;6714;53.056;8.690;2024-02-15T02:18:08;9.03;;;8.13;;
13291;SDS011;6714;53.056;8.690;2024-02-15T02:20:50;10.53;;;9.43;;
13291;SDS011;6714;53.056;8.690;2024-02-15T02:23:35;14.73;;;11.40;;
13291;SDS011;6714;53.056;8.690;2024-02-15T02:26:19;8.63;;;7.37;;
13291;SDS011;6714;53.056;8.690;2024-02-15T02:29:02;8.80;;;7.93;;
13291;SDS011;6714;53.056;8.690;2024-02-15T02:31:45;12.03;;;9.87;;
13291;SDS011;6714;53.056;8.690;2024-02-15T02:34:30;11.87;;;9.60;;
13291;SDS011;6714;53.056;8.690;2024-02-15T02:37:13;11.40;;;9.73;;
13291;SDS011;6714;53.056;8.690;2024-02-15T02:39:57;10.20;;;8.80;;
13291;SDS011;6714;53.056;8.690;2024-02-15T02:42:47;13.47;;;10.50;;
13291;SDS011;6714;53.056;8.690;2024-02-15T02:45:30;9.80;;;8.40;;
13291;SDS011;6714;53.056;8.690;2024-02-15T02:48:12;12.00;;;10.03;;
13291;SDS011;6714;53.056;8.690;2024-02-15T02:50:56;13.13;;;11.20;;
13291;SDS011;6714;53.056;8.690;2024-02-15T02:53:38;13.13;;;10.10;;
13291;SDS011;6714;53.056;8.690;2024-02-15T02:56:21;15.57;;;11.90;;
13291;SDS011;6714;53.056;8.690;2024-02-15T02:59:04;10.83;;;9.10;;
13291;SDS011;6714;53.056;8.690;2024-02-15T03:01:47;11.33;;;9.23;;
13291;SDS011;6714;53.056;8.690;2024-02-15T03:04:30;13.60;;;10.23;;
13291;SDS011;6714;53.056;8.690;2024-02-15T03:07:14;12.03;;;8.53;;
13291;SDS011;6714;53.056;8.690;2024-02-15T03:09:59;15.13;;;11.00;;
13291;SDS011;6714;53.056;8.690;2024-02-15T03:12:42;14.00;;;11.03;;
13291;SDS011;6714;53.056;8.690;2024-02-15T03:15:28;11.57;;;9.60;;
13291;SDS011;6714;53.056;8.690;2024-02-15T03:18:10;11.40;;;8.93;;
13291;SDS011;6714;53.056;8.690;2024-02-15T03:20:52;8.60;;;7.57;;
13291;SDS011;6714;53.056;8.690;2024-02-15T03:23:34;16.50;;;11.60;;
13291;SDS011;6714;53.056;8.690;2024-02-15T03:26:19;19.23;;;13.77;;
13291;SDS011;6714;53.056;8.690;2024-02-15T03:29:03;15.07;;;11.80;;
13291;SDS011;6714;53.056;8.690;2024-02-15T03:31:49;16.93;;;12.93;;
13291;SDS011;6714;53.056;8.690;2024-02-15T03:34:34;19.53;;;14.00;;
13291;SDS011;6714;53.056;8.690;2024-02-15T03:37:16;15.20;;;11.00;;
13291;SDS011;6714;53.056;8.690;2024-02-15T03:40:00;15.07;;;11.67;;
13291;SDS011;6714;53.056;8.690;2024-02-15T03:42:44;20.07;;;13.93;;
13291;SDS011;6714;53.056;8.690;2024-02-15T03:45:26;13.40;;;10.27;;
13291;SDS011;6714;53.056;8.690;2024-02-15T03:48:10;17.13;;;13.13;;
13291;SDS011;6714;53.056;8.690;2024-02-15T03:50:53;13.40;;;10.73;;
13291;SDS011;6714;53.056;8.690;2024-02-15T03:53:35;20.00;;;14.43;;
13291;SDS011;6714;53.056;8.690;2024-02-15T03:56:20;22.57;;;15.43;;
13291;SDS011;6714;53.056;8.690;2024-02-15T03:59:02;17.83;;;14.13;;
13291;SDS011;6714;53.056;8.690;2024-02-15T04:01:45;20.47;;;14.83;;
13291;SDS011;6714;53.056;8.690;2024-02-15T04:04:29;24.00;;;17.00;;
13291;SDS011;6714;53.056;8.690;2024-02-15T04:07:11;13.13;;;9.90;;
13291;SDS011;6714;53.056;8.690;2024-02-15T04:09:54;18.10;;;12.23;;
13291;SDS011;6714;53.056;8.690;2024-02-15T04:12:36;16.80;;;12.40;;
13291;SDS011;6714;53.056;8.690;2024-02-15T04:15:22;17.47;;;12.20;;
13291;SDS011;6714;53.056;8.690;2024-02-15T04:18:04;17.03;;;11.90;;
13291;SDS011;6714;53.056;8.690;2024-02-15T04:20:49;14.30;;;11.63;;
13291;SDS011;6714;53.056;8.690;2024-02-15T04:23:32;18.70;;;13.30;;
13291;SDS011;6714;53.056;8.690;2024-02-15T04:26:15;15.27;;;10.50;;
13291;SDS011;6714;53.056;8.690;2024-02-15T04:28:59;20.73;;;15.40;;
13291;SDS011;6714;53.056;8.690;2024-02-15T04:31:42;17.87;;;12.80;;
13291;SDS011;6714;53.056;8.690;2024-02-15T04:34:24;16.07;;;12.97;;
13291;SDS011;6714;53.056;8.690;2024-02-15T04:37:08;16.57;;;13.50;;
13291;SDS011;6714;53.056;8.690;2024-02-15T04:39:50;21.40;;;14.17;;
13291;SDS011;6714;53.056;8.690;2024-02-15T04:42:33;21.87;;;14.63;;
13291;SDS011;6714;53.056;8.690;2024-02-15T04:45:17;17.93;;;13.03;;
13291;SDS011;6714;53.056;8.690;2024-02-15T04:48:02;20.57;;;14.33;;
13291;SDS011;6714;53.056;8.690;2024-02-15T04:50:44;22.77;;;15.70;;
13291;SDS011;6714;53.056;8.690;2024-02-15T04:53:28;18.37;;;13.00;;
13291;SDS011;6714;53.056;8.690;2024-02-15T04:56:11;16.87;;;13.07;;
13291;SDS011;6714;53.056;8.690;2024-02-15T04:58:54;18.60;;;13.13;;
13291;SDS011;6714;53.056;8.690;2024-02-15T05:01:36;16.10;;;12.07;;
13291;SDS011;6714;53.056;8.690;2024-02-15T05:04:22;17.60;;;13.33;;
13291;SDS011;6714;53.056;8.690;2024-02-15T05:07:05;20.07;;;14.10;;
13291;SDS011;6714;53.056;8.690;2024-02-15T05:09:49;17.97;;;13.07;;
13291;SDS011;6714;53.056;8.690;2024-02-15T05:12:32;18.47;;;14.00;;
13291;SDS011;6714;53.056;8.690;2024-02-15T05:15:16;17.83;;;13.33;;
13291;SDS011;6714;53.056;8.690;2024-02-15T05:17:58;20.93;;;14.67;;
13291;SDS011;6714;53.056;8.690;2024-02-15T05:20:42;18.33;;;13.47;;
13291;SDS011;6714;53.056;8.690;2024-02-15T05:23:25;19.77;;;14.33;;
13291;SDS011;6714;53.056;8.690;2024-02-15T05:26:08;20.90;;;14.97;;
13291;SDS011;6714;53.056;8.690;2024-02-15T05:28:51;17.20;;;13.47;;
13291;SDS011;6714;53.056;8.690;2024-02-15T05:31:33;14.07;;;11.43;;
13291;SDS011;6714;53.056;8.690;2024-02-15T05:34:18;20.30;;;14.27;;
13291;SDS011;6714;53.056;8.690;2024-02-15T05:37:00;17.37;;;12.87;;
13291;SDS011;6714;53.056;8.690;2024-02-15T05:39:42;19.13;;;13.93;;
13291;SDS011;6714;53.056;8.690;2024-02-15T05:42:26;19.57;;;14.37;;
13291;SDS011;6714;53.056;8.690;2024-02-15T05:45:28;16.53;;;12.90;;
13291;SDS011;6714;53.056;8.690;2024-02-15T05:48:12;18.87;;;13.47;;
13291;SDS011;6714;53.056;8.690;2024-02-15T05:50:56;18.63;;;14.23;;
13291;SDS011;6714;53.056;8.690;2024-02-15T05:53:39;23.97;;;15.63;;
13291;SDS011;6714;53.056;8.690;2024-02-15T05:56:22;21.40;;;14.87;;
13291;SDS011;6714;53.056;8.690;2024-02-15T05:59:07;18.97;;;14.00;;
13291;SDS011;6714;53.056;8.690;2024-02-15T06:01:51;20.03;;;13.67;;
13291;SDS011;6714;53.056;8.690;2024-02-15T06:04:34;18.97;;;13.43;;
13291;SDS011;6714;53.056;8.690;2024-02-15T06:07:16;20.17;;;15.03;;
13291;SDS011;6714;53.056;8.690;2024-02-15T06:09:58;17.67;;;13.87;;
13291;SDS011;6714;53.056;8.690;2024-02-15T06:12:43;20.00;;;13.60;;
13291;SDS011;6714;53.056;8.690;2024-02-15T06:15:27;15.97;;;11.60;;
13291;SDS011;6714;53.056;8.690;2024-02-15T06:18:11;17.73;;;12.90;;
13291;SDS011;6714;53.056;8.690;2024-02-15T06:20:55;16.90;;;13.03;;
13291;SDS011;6714;53.056;8.690;2024-02-15T06:23:39;16.70;;;13.40;;
13291;SDS011;6714;53.056;8.690;2024-02-15T06:26:23;16.60;;;12.53;;
13291;SDS011;6714;53.056;8.690;2024-02-15T06:29:08;13.80;;;11.33;;
13291;SDS011;6714;53.056;8.690;2024-02-15T06:32:09;18.77;;;12.97;;
13291;SDS011;6714;53.056;8.690;2024-02-15T06:35:09;12.90;;;10.63;;
13291;SDS011;6714;53.056;8.690;2024-02-15T06:38:09;17.00;;;12.93;;
13291;SDS011;6714;53.056;8.690;2024-02-15T06:41:09;13.37;;;10.67;;
13291;SDS011;6714;53.056;8.690;2024-02-15T06:43:52;14.30;;;11.43;;
13291;SDS011;6714;53.056;8.690;2024-02-15T06:46:37;16.97;;;11.97;;
13291;SDS011;6714;53.056;8.690;2024-02-15T06:49:22;13.50;;;10.47;;
13291;SDS011;6714;53.056;8.690;2024-02-15T06:52:08;14.53;;;10.83;;
13291;SDS011;6714;53.056;8.690;2024-02-15T06:54:52;16.63;;;12.13;;
13291;SDS011;6714;53.056;8.690;2024-02-15T06:57:37;15.80;;;11.53;;
13291;SDS011;6714;53.056;8.690;2024-02-15T07:00:22;16.27;;;11.37;;
13291;SDS011;6714;53.056;8.690;2024-02-15T07:03:05;17.17;;;12.77;;
13291;SDS011;6714;53.056;8.690;2024-02-15T07:05:49;18.03;;;14.00;;
13291;SDS011;6714;53.056;8.690;2024-02-15T07:08:32;14.20;;;12.30;;
13291;SDS011;6714;53.056;8.690;2024-02-15T07:11:14;15.17;;;12.83;;
13291;SDS011;6714;53.056;8.690;2024-02-15T07:13:56;17.57;;;13.77;;
13291;SDS011;6714;53.056;8.690;2024-02-15T07:16:38;16.80;;;13.57;;
13291;SDS011;6714;53.056;8.690;2024-02-15T07:19:21;16.60;;;13.17;;
13291;SDS011;6714;53.056;8.690;2024-02-15T07:22:04;17.13;;;13.43;;
13291;SDS011;6714;53.056;8.690;2024-02-15T07:24:48;13.97;;;12.03;;
13291;SDS011;6714;53.056;8.690;2024-02-15T07:27:32;15.57;;;12.47;;
13291;SDS011;6714;53.056;8.690;2024-02-15T07:30:15;16.60;;;13.03;;
13291;SDS011;6714;53.056;8.690;2024-02-15T07:32:57;17.80;;;13.87;;
13291;SDS011;6714;53.056;8.690;2024-02-15T07:35:41;15.47;;;11.93;;
13291;SDS011;6714;53.056;8.690;2024-02-15T07:38:26;18.33;;;15.17;;
13291;SDS011;6714;53.056;8.690;2024-02-15T07:41:08;15.83;;;12.07;;
13291;SDS011;6714;53.056;8.690;2024-02-15T07:43:51;19.33;;;15.93;;
13291;SDS011;6714;53.056;8.690;2024-02-15T07:46:35;21.13;;;15.43;;
13291;SDS011;6714;53.056;8.690;2024-02-15T07:49:20;15.80;;;13.23;;
13291;SDS011;6714;53.056;8.690;2024-02-15T07:52:02;17.13;;;14.67;;
13291;SDS011;6714;53.056;8.690;2024-02-15T07:54:47;15.23;;;12.07;;
13291;SDS011;6714;53.056;8.690;2024-02-15T07:57:30;18.33;;;13.97;;
13291;SDS011;6714;53.056;8.690;2024-02-15T08:00:12;22.20;;;15.30;;
13291;SDS011;6714;53.056;8.690;2024-02-15T08:02:56;19.53;;;14.27;;
13291;SDS011;6714;53.056;8.690;2024-02-15T08:05:40;19.93;;;15.13;;
13291;SDS011;6714;53.056;8.690;2024-02-15T08:08:22;15.60;;;12.87;;
13291;SDS011;6714;53.056;8.690;2024-02-15T08:11:07;16.00;;;12.17;;
13291;SDS011;6714;53.056;8.690;2024-02-15T08:13:54;21.27;;;14.70;;
13291;SDS011;6714;53.056;8.690;2024-02-15T08:16:39;18.10;;;14.10;;
13291;SDS011;6714;53.056;8.690;2024-02-15T08:19:24;19.73;;;16.10;;
13291;SDS011;6714;53.056;8.690;2024-02-15T08:22:09;15.47;;;12.27;;
13291;SDS011;6714;53.056;8.690;2024-02-15T08:24:53;13.70;;;12.13;;
13291;SDS011;6714;53.056;8.690;2024-02-15T08:27:38;16.47;;;12.53;;
13291;SDS011;6714;53.056;8.690;2024-02-15T08:30:25;19.20;;;15.13;;
13291;SDS011;6714;53.056;8.690;2024-02-15T08:33:07;17.80;;;13.73;;
13291;SDS011;6714;53.056;8.690;2024-02-15T08:35:53;17.63;;;11.97;;
13291;SDS011;6714;53.056;8.690;2024-02-15T08:38:36;15.83;;;12.63;;
13291;SDS011;6714;53.056;8.690;2024-02-15T08:41:18;20.03;;;15.47;;
13291;SDS011;6714;53.056;8.690;2024-02-15T08:44:02;14.33;;;12.87;;
13291;SDS011;6714;53.056;8.690;2024-02-15T08:46:49;18.50;;;14.30;;
13291;SDS011;6714;53.056;8.690;2024-02-15T08:49:31;16.17;;;13.10;;
13291;SDS011;6714;53.056;8.690;2024-02-15T08:52:15;15.43;;;12.33;;
13291;SDS011;6714;53.056;8.690;2024-02-15T08:54:58;21.20;;;16.77;;
13291;SDS011;6714;53.056;8.690;2024-02-15T08:57:41;18.17;;;14.97;;
13291;SDS011;6714;53.056;8.690;2024-02-15T09:00:25;16.10;;;14.10;;
13291;SDS011;6714;53.056;8.690;2024-02-15T09:03:11;17.33;;;14.20;;
13291;SDS011;6714;53.056;8.690;2024-02-15T09:05:53;14.40;;;12.87;;
13291;SDS011;6714;53.056;8.690;2024-02-15T09:08:36;23.73;;;16.23;;
13291;SDS011;6714;53.056;8.690;2024-02-15T09:11:19;23.47;;;17.17;;
13291;SDS011;6714;53.056;8.690;2024-02-15T09:14:03;25.43;;;17.77;;
13291;SDS011;6714;53.056;8.690;2024-02-15T09:16:47;17.97;;;13.73;;
13291;SDS011;6714;53.056;8.690;2024-02-15T09:19:30;20.03;;;15.70;;
13291;SDS011;6714;53.056;8.690;2024-02-15T09:22:12;17.57;;;13.10;;
13291;SDS011;6714;53.056;8.690;2024-02-15T09:24:54;17.33;;;14.03;;
13291;SDS011;6714;53.056;8.690;2024-02-15T09:27:37;20.80;;;15.60;;
13291;SDS011;6714;53.056;8.690;2024-02-15T09:30:19;17.37;;;13.33;;
13291;SDS011;6714;53.056;8.690;2024-02-15T09:33:13;16.10;;;13.90;;
13291;SDS011;6714;53.056;8.690;2024-02-15T09:35:57;15.80;;;13.07;;
13291;SDS011;6714;53.056;8.690;2024-02-15T09:38:40;20.17;;;15.10;;
13291;SDS011;6714;53.056;8.690;2024-02-15T09:41:23;18.80;;;13.90;;
13291;SDS011;6714;53.056;8.690;2024-02-15T09:44:06;18.10;;;14.07;;
13291;SDS011;6714;53.056;8.690;2024-02-15T09:46:49;21.37;;;16.33;;
13291;SDS011;6714;53.056;8.690;2024-02-15T09:49:44;19.40;;;14.60;;
13291;SDS011;6714;53.056;8.690;2024-02-15T09:52:27;20.50;;;15.43;;
13291;SDS011;6714;53.056;8.690;2024-02-15T09:55:12;15.27;;;12.87;;
13291;SDS011;6714;53.056;8.690;2024-02-15T09:57:56;22.57;;;15.70;;
13291;SDS011;6714;53.056;8.690;2024-02-15T10:00:38;25.40;;;17.90;;
13291;SDS011;6714;53.056;8.690;2024-02-15T10:03:22;20.13;;;16.30;;
13291;SDS011;6714;53.056;8.690;2024-02-15T10:06:08;22.03;;;16.83;;
13291;SDS011;6714;53.056;8.690;2024-02-15T10:08:51;22.40;;;17.47;;
13291;SDS011;6714;53.056;8.690;2024-02-15T10:11:33;20.50;;;17.47;;
13291;SDS011;6714;53.056;8.690;2024-02-15T10:14:19;14.37;;;12.33;;
13291;SDS011;6714;53.056;8.690;2024-02-15T10:17:05;18.73;;;15.03;;
13291;SDS011;6714;53.056;8.690;2024-02-15T10:20:02;18.83;;;14.63;;
13291;SDS011;6714;53.056;8.690;2024-02-15T10:22:46;21.70;;;16.30;;
13291;SDS011;6714;53.056;8.690;2024-02-15T10:25:29;21.97;;;16.80;;
13291;SDS011;6714;53.056;8.690;2024-02-15T10:28:11;17.30;;;13.03;;
13291;SDS011;6714;53.056;8.690;2024-02-15T10:30:57;17.30;;;14.03;;
13291;SDS011;6714;53.056;8.690;2024-02-15T10:33:52;21.77;;;16.33;;
13291;SDS011;6714;53.056;8.690;2024-02-15T10:36:35;19.63;;;15.60;;
13291;SDS011;6714;53.056;8.690;2024-02-15T10:39:19;15.37;;;13.47;;
13291;SDS011;6714;53.056;8.690;2024-02-15T10:42:02;14.53;;;12.63;;
13291;SDS011;6714;53.056;8.690;2024-02-15T10:44:45;15.30;;;12.83;;
13291;SDS011;6714;53.056;8.690;2024-02-15T10:47:29;17.73;;;14.33;;
13291;SDS011;6714;53.056;8.690;2024-02-15T10:50:16;13.63;;;12.23;;
13291;SDS011;6714;53.056;8.690;2024-02-15T10:53:03;15.33;;;13.67;;
13291;SDS011;6714;53.056;8.690;2024-02-15T10:55:52;17.13;;;13.40;;
13291;SDS011;6714;53.056;8.690;2024-02-15T10:58:38;14.07;;;12.57;;
13291;SDS011;6714;53.056;8.690;2024-02-15T11:01:22;16.57;;;13.83;;
13291;SDS011;6714;53.056;8.690;2024-02-15T11:04:06;14.77;;;12.43;;
13291;SDS011;6714;53.056;8.690;2024-02-15T11:06:52;15.00;;;13.47;;
13291;SDS011;6714;53.056;8.690;2024-02-15T11:09:37;15.83;;;14.00;;
13291;SDS011;6714;53.056;8.690;2024-02-15T11:12:23;17.83;;;13.77;;
13291;SDS011;6714;53.056;8.690;2024-02-15T11:15:07;14.37;;;12.93;;
13291;SDS011;6714;53.056;8.690;2024-02-15T11:17:51;16.80;;;14.07;;
13291;SDS011;6714;53.056;8.690;2024-02-15T11:20:46;16.43;;;14.50;;
13291;SDS011;6714;53.056;8.690;2024-02-15T11:23:30;16.83;;;13.23;;
13291;SDS011;6714;53.056;8.690;2024-02-15T11:32:36;16.83;;;13.93;;
13291;SDS011;6714;53.056;8.690;2024-02-15T11:35:19;14.03;;;12.40;;
13291;SDS011;6714;53.056;8.690;2024-02-15T11:38:03;14.67;;;12.27;;
13291;SDS011;6714;53.056;8.690;2024-02-15T11:40:59;13.60;;;12.10;;
13291;SDS011;6714;53.056;8.690;2024-02-15T11:43:45;14.17;;;12.77;;
13291;SDS011;6714;53.056;8.690;2024-02-15T11:46:34;13.27;;;11.97;;
13291;SDS011;6714;53.056;8.690;2024-02-15T11:49:19;14.10;;;12.47;;
13291;SDS011;6714;53.056;8.690;2024-02-15T11:52:08;14.37;;;12.77;;
13291;SDS011;6714;53.056;8.690;2024-02-15T11:54:51;13.37;;;12.00;;
13291;SDS011;6714;53.056;8.690;2024-02-15T11:57:34;12.37;;;10.60;;
13291;SDS011;6714;53.056;8.690;2024-02-15T12:00:27;13.20;;;11.80;;
13291;SDS011;6714;53.056;8.690;2024-02-15T12:03:27;13.33;;;12.03;;
13291;SDS011;6714;53.056;8.690;2024-02-15T12:06:29;12.23;;;11.03;;
13291;SDS011;6714;53.056;8.690;2024-02-15T12:09:30;11.80;;;10.60;;
13291;SDS011;6714;53.056;8.690;2024-02-15T12:12:29;12.67;;;11.33;;
13291;SDS011;6714;53.056;8.690;2024-02-15T12:15:38;12.37;;;11.27;;
13291;SDS011;6714;53.056;8.690;2024-02-15T12:18:39;13.50;;;12.20;;
13291;SDS011;6714;53.056;8.690;2024-02-15T12:21:23;12.57;;;11.33;;
13291;SDS011;6714;53.056;8.690;2024-02-15T12:24:08;10.97;;;9.87;;
13291;SDS011;6714;53.056;8.690;2024-02-15T12:27:02;12.23;;;11.00;;
13291;SDS011;6714;53.056;8.690;2024-02-15T12:29:45;11.73;;;10.60;;
13291;SDS011;6714;53.056;8.690;2024-02-15T12:32:28;12.27;;;10.97;;
13291;SDS011;6714;53.056;8.690;2024-02-15T12:35:12;13.67;;;11.63;;
13291;SDS011;6714;53.056;8.690;2024-02-15T12:38:00;12.37;;;11.23;;
13291;SDS011;6714;53.056;8.690;2024-02-15T12:40:47;11.20;;;10.10;;
13291;SDS011;6714;53.056;8.690;2024-02-15T12:43:30;11.50;;;10.30;;
13291;SDS011;6714;53.056;8.690;2024-02-15T12:46:12;10.33;;;9.33;;
13291;SDS011;6714;53.056;8.690;2024-02-15T12:49:10;10.83;;;9.83;;
13291;SDS011;6714;53.056;8.690;2024-02-15T12:51:54;11.00;;;9.93;;
13291;SDS011;6714;53.056;8.690;2024-02-15T12:55:06;9.77;;;8.93;;
13291;SDS011;6714;53.056;8.690;2024-02-15T12:57:53;10.93;;;9.93;;
13291;SDS011;6714;53.056;8.690;2024-02-15T13:00:37;10.70;;;9.70;;
13291;SDS011;6714;53.056;8.690;2024-02-15T13:03:20;10.73;;;9.67;;
13291;SDS011;6714;53.056;8.690;2024-02-15T13:06:02;11.20;;;10.20;;
13291;SDS011;6714;53.056;8.690;2024-02-15T13:08:44;9.90;;;9.00;;
13291;SDS011;6714;53.056;8.690;2024-02-15T13:11:30;10.77;;;9.63;;
13291;SDS011;6714;53.056;8.690;2024-02-15T13:14:15;11.13;;;10.07;;
13291;SDS011;6714;53.056;8.690;2024-02-15T13:16:58;10.77;;;9.77;;
13291;SDS011;6714;53.056;8.690;2024-02-15T13:19:44;9.50;;;8.67;;
13291;SDS011;6714;53.056;8.690;2024-02-15T13:22:29;10.00;;;9.03;;
13291;SDS011;6714;53.056;8.690;2024-02-15T13:25:11;9.90;;;9.07;;
13291;SDS011;6714;53.056;8.690;2024-02-15T13:27:53;10.27;;;9.17;;
13291;SDS011;6714;53.056;8.690;2024-02-15T13:30:37;10.70;;;9.70;;
13291;SDS011;6714;53.056;8.690;2024-02-15T13:33:19;10.20;;;9.23;;
13291;SDS011;6714;53.056;8.690;2024-02-15T13:36:02;9.90;;;9.00;;
13291;SDS011;6714;53.056;8.690;2024-02-15T13:38:50;9.53;;;8.73;;
13291;SDS011;6714;53.056;8.690;2024-02-15T13:41:33;9.73;;;8.83;;
13291;SDS011;6714;53.056;8.690;2024-02-15T13:44:15;7.97;;;7.27;;
13291;SDS011;6714;53.056;8.690;2024-02-15T13:46:58;8.27;;;7.47;;
13291;SDS011;6714;53.056;8.690;2024-02-15T13:49:41;8.17;;;7.47;;
13291;SDS011;6714;53.056;8.690;2024-02-15T13:52:24;8.40;;;7.60;;
13291;SDS011;6714;53.056;8.690;2024-02-15T13:55:07;9.27;;;8.37;;
13291;SDS011;6714;53.056;8.690;2024-02-15T13:57:51;7.93;;;7.10;;
13291;SDS011;6714;53.056;8.690;2024-02-15T14:00:35;8.47;;;7.77;;
13291;SDS011;6714;53.056;8.690;2024-02-15T14:03:20;8.07;;;7.37;;
13291;SDS011;6714;53.056;8.690;2024-02-15T14:06:04;8.40;;;7.70;;
13291;SDS011;6714;53.056;8.690;2024-02-15T14:08:47;7.20;;;6.67;;
13291;SDS011;6714;53.056;8.690;2024-02-15T14:11:30;8.03;;;7.33;;
13291;SDS011;6714;53.056;8.690;2024-02-15T14:14:13;8.50;;;7.90;;
13291;SDS011;6714;53.056;8.690;2024-02-15T14:16:57;8.27;;;7.57;;
13291;SDS011;6714;53.056;8.690;2024-02-15T14:19:41;7.50;;;6.80;;
13291;SDS011;6714;53.056;8.690;2024-02-15T14:22:23;6.73;;;6.13;;
13291;SDS011;6714;53.056;8.690;2024-02-15T14:25:09;7.10;;;6.43;;
13291;SDS011;6714;53.056;8.690;2024-02-15T14:27:53;7.00;;;6.30;;
13291;SDS011;6714;53.056;8.690;2024-02-15T14:30:37;7.20;;;6.60;;
13291;SDS011;6714;53.056;8.690;2024-02-15T14:33:36;7.17;;;6.60;;
13291;SDS011;6714;53.056;8.690;2024-02-15T14:36:20;7.53;;;6.90;;
13291;SDS011;6714;53.056;8.690;2024-02-15T14:39:03;7.37;;;6.70;;
13291;SDS011;6714;53.056;8.690;2024-02-15T14:41:48;7.17;;;6.43;;
13291;SDS011;6714;53.056;8.690;2024-02-15T14:44:31;7.10;;;6.43;;
13291;SDS011;6714;53.056;8.690;2024-02-15T14:47:14;6.73;;;6.13;;
13291;SDS011;6714;53.056;8.690;2024-02-15T14:49:56;7.80;;;5.93;;
13291;SDS011;6714;53.056;8.690;2024-02-15T14:52:41;6.80;;;6.27;;
13291;SDS011;6714;53.056;8.690;2024-02-15T14:55:23;6.20;;;5.70;;
13291;SDS011;6714;53.056;8.690;2024-02-15T14:58:05;6.10;;;5.63;;
13291;SDS011;6714;53.056;8.690;2024-02-15T15:00:48;6.80;;;6.00;;
13291;SDS011;6714;53.056;8.690;2024-02-15T15:03:31;7.10;;;6.20;;
13291;SDS011;6714;53.056;8.690;2024-02-15T15:06:13;6.53;;;6.00;;
13291;SDS011;6714;53.056;8.690;2024-02-15T15:09:15;6.53;;;6.03;;
13291;SDS011;6714;53.056;8.690;2024-02-15T15:12:15;6.90;;;6.30;;
13291;SDS011;6714;53.056;8.690;2024-02-15T15:15:14;5.90;;;5.40;;
13291;SDS011;6714;53.056;8.690;2024-02-15T15:17:58;6.30;;;5.70;;
13291;SDS011;6714;53.056;8.690;2024-02-15T15:20:40;6.93;;;5.80;;
13291;SDS011;6714;53.056;8.690;2024-02-15T15:23:22;6.33;;;5.73;;
13291;SDS011;6714;53.056;8.690;2024-02-15T15:26:07;6.13;;;5.63;;
13291;SDS011;6714;53.056;8.690;2024-02-15T15:28:51;5.90;;;5.40;;
13291;SDS011;6714;53.056;8.690;2024-02-15T15:31:35;5.87;;;5.37;;
13291;SDS011;6714;53.056;8.690;2024-02-15T15:34:18;7.63;;;5.33;;
13291;SDS011;6714;53.056;8.690;2024-02-15T15:37:01;5.90;;;5.20;;
13291;SDS011;6714;53.056;8.690;2024-02-15T15:39:44;6.00;;;5.50;;
13291;SDS011;6714;53.056;8.690;2024-02-15T15:42:27;5.80;;;5.23;;
13291;SDS011;6714;53.056;8.690;2024-02-15T15:45:10;8.20;;;5.07;;
13291;SDS011;6714;53.056;8.690;2024-02-15T15:47:52;6.57;;;5.00;;
13291;SDS011;6714;53.056;8.690;2024-02-15T15:50:35;7.23;;;5.10;;
13291;SDS011;6714;53.056;8.690;2024-02-15T15:53:18;6.63;;;4.93;;
13291;SDS011;6714;53.056;8.690;2024-02-15T15:56:01;5.87;;;5.20;;
13291;SDS011;6714;53.056;8.690;2024-02-15T15:58:44;6.43;;;5.83;;
13291;SDS011;6714;53.056;8.690;2024-02-15T16:01:28;6.13;;;5.50;;
13291;SDS011;6714;53.056;8.690;2024-02-15T16:04:11;5.40;;;4.97;;
13291;SDS011;6714;53.056;8.690;2024-02-15T16:06:53;5.20;;;4.70;;
13291;SDS011;6714;53.056;8.690;2024-02-15T16:09:35;5.47;;;4.97;;
13291;SDS011;6714;53.056;8.690;2024-02-15T16:12:21;5.97;;;5.37;;
13291;SDS011;6714;53.056;8.690;2024-02-15T16:15:05;5.50;;;5.00;;
13291;SDS011;6714;53.056;8.690;2024-02-15T16:17:49;6.13;;;5.03;;
13291;SDS011;6714;53.056;8.690;2024-02-15T16:20:31;5.10;;;4.60;;
13291;SDS011;6714;53.056;8.690;2024-02-15T16:23:13;5.20;;;4.77;;
13291;SDS011;6714;53.056;8.690;2024-02-15T16:25:55;6.53;;;4.90;;
13291;SDS011;6714;53.056;8.690;2024-02-15T16:28:38;5.17;;;4.70;;
13291;SDS011;6714;53.056;8.690;2024-02-15T16:31:22;5.23;;;4.70;;
13291;SDS011;6714;53.056;8.690;2024-02-15T16:34:04;5.20;;;4.70;;